Fairbanks, AK

6:50 AM AKDT on May 27, 2017 (GMT -0800)
Fairbanks International | | Change Station

Elev 433 ft 64.81 °N, 147.86 °W | Updated 57 minutes ago

Mostly Cloudy
Mostly Cloudy
37 °F
Feels Like 32 °F
N
7
Wind Variable Wind from ESE

Today
High -- | Low -- °F
--% Chance of Precip.
Yesterday
High -- | Low -- °F
Precip. -- in
Pressure 30.06 in
Visibility 10.0 miles
Clouds Scattered Clouds 8500 ft
Mostly Cloudy 11000 ft
Mostly Cloudy 20000 ft
Windchill 32 °F
Dew Point 31 °F
Humidity 79%
Rainfall 0.00 in
Snow Depth Not available.
3:47 AM 11:52 PM
Waxing Crescent, 5% visible
METAR PAFA 271353Z 12006KT 10SM SCT085 BKN110 BKN200 03/M01 A3004 RMK AO2 SLP180 T00281006
Pressure 30.06 in
Visibility 10.0 miles
Clouds Scattered Clouds 8500 ft
Mostly Cloudy 11000 ft
Mostly Cloudy 20000 ft
Windchill 32 °F
Dew Point 31 °F
Humidity 79%
Rainfall 0.00 in
Snow Depth Not available.
3:47 AM 11:52 PM
Waxing Crescent, 5% visible
METAR PAFA 271353Z 12006KT 10SM SCT085 BKN110 BKN200 03/M01 A3004 RMK AO2 SLP180 T00281006

Get Severe Weather Alerts

Thanks for signing up!

Be on the lookout for a verification email in your inbox.

You'll start receiving the daily forecast at 6 AM.

×

10-Day Weather Forecast

Almanac

Astronomy

May. 27, 2017 Rise Set
Actual Time
Civil Twilight
Nautical Twilight
Astronomical Twilight
Moon
Length of Visible Light
Length of Day
Tomorrow will be .
, % of the Moon is Illuminated

Today's Extremes

State Highs State Lows

Community

WunderPhotos

Category 6

Welcome to Category 6. This is the collective home for Weather Underground's featured writeups by Dr. Jeff Masters (right), Bob Henson (left), Chris Burt, and other regular contributors.

Nearby

Air Quality

  Air Quality AQ Index Pollutant
Not available.

Snow Depth

Station Depth Elevation

Earthquake Activity

City Distance Mag. Time & Date
Minimum magnitude displayed is 2.5.

Coastal Water Temperatures

Place Temperature

Stations

Nearby Weather Stations

Station Location Temp. Windchill Dew Point Humidity Wind Precip. Elev Updated Type
                   

Watches & Warnings

There are currently no watches in effect.